OAL903 LEBA-LPCS
Flight info
| Callsign | OAL903 |
|---|---|
| Flight time | 1h 30m |
| Altitude | 6500 |
| Route | WHISKY HOMACHUELOS RIOVIAR MONASTERIO FREGENAL MOURAO MAXED VALVE PINHEIRO SETUBAL FONTEDATELHA COVADOVAPOR CHARLE |
| Aircraft | SR22/M-VGD/A |
Departure
| Time | 2026-05-06 18:43 |
|---|---|
| Airport | Córdoba Airport (LEBA) |
Arrival
| Time | 2026-05-06 20:14 |
|---|---|
| Airport | Cascais Airport (LPCS) |
| Time | Latitude | Longitude | Altitude | Speed | Heading |
|---|---|---|---|---|---|
| 2026-05-06 18:34 | 37.84585 | -4.84424 | 298 ft | 0 kts | 118° |
| 2026-05-06 18:38 | 37.84547 | -4.84441 | 301 ft | 12 kts | 209° |
| 2026-05-06 18:39 | 37.84490 | -4.84513 | 299 ft | 13 kts | 283° |
| 2026-05-06 18:39 | 37.84505 | -4.84550 | 300 ft | 0 kts | 298° |
| 2026-05-06 18:41 | 37.84507 | -4.84554 | 300 ft | 4 kts | 296° |
| 2026-05-06 18:41 | 37.84545 | -4.84650 | 300 ft | 15 kts | 255° |
| 2026-05-06 18:41 | 37.84527 | -4.84672 | 302 ft | 0 kts | 215° |
| 2026-05-06 18:42 | 37.84479 | -4.84709 | 299 ft | 36 kts | 209° |
| 2026-05-06 18:42 | 37.84083 | -4.84993 | 366 ft | 78 kts | 210° |
| 2026-05-06 18:43 | 37.83624 | -4.85317 | 666 ft | 76 kts | 207° |
| 2026-05-06 18:43 | 37.83132 | -4.85667 | 942 ft | 85 kts | 208° |
| 2026-05-06 18:43 | 37.82636 | -4.85973 | 1309 ft | 87 kts | 226° |
| 2026-05-06 18:43 | 37.82424 | -4.86754 | 1554 ft | 102 kts | 255° |
| 2026-05-06 18:44 | 37.82256 | -4.87585 | 1968 ft | 97 kts | 250° |
| 2026-05-06 18:44 | 37.82114 | -4.88434 | 2343 ft | 100 kts | 263° |
| 2026-05-06 18:44 | 37.82046 | -4.89307 | 2735 ft | 101 kts | 260° |
| 2026-05-06 18:44 | 37.81967 | -4.90187 | 3123 ft | 101 kts | 258° |
| 2026-05-06 18:45 | 37.81879 | -4.91092 | 3449 ft | 108 kts | 261° |
| 2026-05-06 18:45 | 37.81780 | -4.92067 | 3766 ft | 115 kts | 260° |
| 2026-05-06 18:45 | 37.81717 | -4.93102 | 4086 ft | 120 kts | 263° |
| 2026-05-06 18:45 | 37.81650 | -4.94175 | 4402 ft | 124 kts | 263° |
| 2026-05-06 18:46 | 37.81585 | -4.95278 | 4719 ft | 127 kts | 263° |
| 2026-05-06 18:46 | 37.81514 | -4.96395 | 5021 ft | 128 kts | 263° |
| 2026-05-06 18:46 | 37.81444 | -4.97526 | 5325 ft | 130 kts | 264° |
| 2026-05-06 18:46 | 37.81387 | -4.98683 | 5630 ft | 133 kts | 265° |
| 2026-05-06 18:47 | 37.81264 | -4.99847 | 5932 ft | 134 kts | 260° |
| 2026-05-06 18:47 | 37.81118 | -5.01007 | 6237 ft | 136 kts | 261° |
| 2026-05-06 18:47 | 37.80960 | -5.02205 | 6473 ft | 143 kts | 260° |
| 2026-05-06 18:47 | 37.80778 | -5.03525 | 6488 ft | 160 kts | 260° |
| 2026-05-06 18:48 | 37.80582 | -5.04967 | 6488 ft | 171 kts | 261° |
| 2026-05-06 18:48 | 37.80531 | -5.06490 | 6485 ft | 177 kts | 278° |
| 2026-05-06 18:48 | 37.80746 | -5.08042 | 6485 ft | 181 kts | 280° |
| 2026-05-06 18:48 | 37.80967 | -5.09582 | 6407 ft | 171 kts | 281° |
| 2026-05-06 18:49 | 37.81180 | -5.11019 | 6282 ft | 161 kts | 281° |
| 2026-05-06 18:49 | 37.81378 | -5.12387 | 6145 ft | 155 kts | 280° |
| 2026-05-06 18:49 | 37.81581 | -5.13709 | 6004 ft | 151 kts | 283° |
| 2026-05-06 18:49 | 37.81890 | -5.14964 | 5864 ft | 148 kts | 282° |
| 2026-05-06 18:50 | 37.82198 | -5.16200 | 5683 ft | 149 kts | 289° |
| 2026-05-06 18:50 | 37.82546 | -5.17427 | 5544 ft | 147 kts | 291° |
| 2026-05-06 18:50 | 37.82906 | -5.18626 | 5423 ft | 145 kts | 281° |
| 2026-05-06 18:50 | 37.83076 | -5.19881 | 5269 ft | 146 kts | 278° |
| 2026-05-06 18:51 | 37.83253 | -5.21164 | 5101 ft | 150 kts | 277° |
| 2026-05-06 18:51 | 37.83443 | -5.22456 | 4939 ft | 153 kts | 278° |
| 2026-05-06 18:51 | 37.83641 | -5.23780 | 4772 ft | 154 kts | 278° |
| 2026-05-06 18:51 | 37.83809 | -5.25116 | 4602 ft | 154 kts | 276° |
| 2026-05-06 18:52 | 37.84029 | -5.26436 | 4491 ft | 151 kts | 283° |
| 2026-05-06 18:52 | 37.84303 | -5.27673 | 4478 ft | 141 kts | 283° |
| 2026-05-06 18:52 | 37.84585 | -5.28849 | 4479 ft | 142 kts | 283° |
| 2026-05-06 18:52 | 37.84872 | -5.30095 | 4488 ft | 152 kts | 283° |
| 2026-05-06 18:53 | 37.85176 | -5.31406 | 4495 ft | 159 kts | 283° |
| 2026-05-06 18:53 | 37.85488 | -5.32765 | 4497 ft | 162 kts | 283° |
| 2026-05-06 18:53 | 37.85807 | -5.34149 | 4492 ft | 166 kts | 284° |
| 2026-05-06 18:53 | 37.86128 | -5.35546 | 4498 ft | 166 kts | 283° |
| 2026-05-06 18:54 | 37.86451 | -5.36953 | 4501 ft | 167 kts | 283° |
| 2026-05-06 18:54 | 37.86775 | -5.38370 | 4498 ft | 168 kts | 284° |
| 2026-05-06 18:54 | 37.87104 | -5.39781 | 4498 ft | 167 kts | 283° |
| 2026-05-06 18:54 | 37.87433 | -5.41183 | 4504 ft | 166 kts | 284° |
| 2026-05-06 18:55 | 37.87762 | -5.42596 | 4494 ft | 168 kts | 283° |
| 2026-05-06 18:55 | 37.88088 | -5.44005 | 4489 ft | 165 kts | 284° |
| 2026-05-06 18:55 | 37.88409 | -5.45397 | 4485 ft | 164 kts | 283° |
| 2026-05-06 18:55 | 37.88730 | -5.46770 | 4491 ft | 162 kts | 284° |
| 2026-05-06 18:56 | 37.89036 | -5.48133 | 4496 ft | 161 kts | 283° |
| 2026-05-06 18:56 | 37.89352 | -5.49498 | 4488 ft | 162 kts | 284° |
| 2026-05-06 18:56 | 37.89669 | -5.50853 | 4494 ft | 164 kts | 284° |
| 2026-05-06 18:56 | 37.89987 | -5.52246 | 4489 ft | 166 kts | 283° |
| 2026-05-06 18:57 | 37.90314 | -5.53639 | 4501 ft | 166 kts | 284° |
| 2026-05-06 18:57 | 37.90643 | -5.55063 | 4496 ft | 169 kts | 284° |
| 2026-05-06 18:57 | 37.90964 | -5.56481 | 4485 ft | 166 kts | 283° |
| 2026-05-06 18:57 | 37.91295 | -5.57879 | 4491 ft | 166 kts | 284° |
| 2026-05-06 18:58 | 37.91659 | -5.59271 | 4494 ft | 167 kts | 286° |
| 2026-05-06 18:58 | 37.92008 | -5.60672 | 4495 ft | 167 kts | 284° |
| 2026-05-06 18:58 | 37.92349 | -5.62083 | 4497 ft | 168 kts | 284° |
| 2026-05-06 18:58 | 37.92686 | -5.63505 | 4500 ft | 169 kts | 283° |
| 2026-05-06 18:59 | 37.93016 | -5.64931 | 4491 ft | 167 kts | 284° |
| 2026-05-06 18:59 | 37.93358 | -5.66327 | 4491 ft | 165 kts | 285° |
| 2026-05-06 18:59 | 37.93700 | -5.67711 | 4491 ft | 165 kts | 283° |
| 2026-05-06 18:59 | 37.94033 | -5.69103 | 4488 ft | 165 kts | 283° |
| 2026-05-06 19:00 | 37.94371 | -5.70485 | 4488 ft | 164 kts | 283° |
| 2026-05-06 19:00 | 37.94740 | -5.71855 | 4482 ft | 164 kts | 287° |
| 2026-05-06 19:00 | 37.95042 | -5.73238 | 4489 ft | 162 kts | 280° |
| 2026-05-06 19:00 | 37.95321 | -5.74633 | 4485 ft | 164 kts | 282° |
| 2026-05-06 19:01 | 37.95613 | -5.76028 | 4485 ft | 163 kts | 282° |
| 2026-05-06 19:01 | 37.95921 | -5.77416 | 4484 ft | 163 kts | 283° |
| 2026-05-06 19:01 | 37.96235 | -5.78778 | 4491 ft | 163 kts | 283° |
| 2026-05-06 19:01 | 37.96546 | -5.80158 | 4494 ft | 164 kts | 282° |
| 2026-05-06 19:02 | 37.96875 | -5.81540 | 4490 ft | 164 kts | 283° |
| 2026-05-06 19:02 | 37.97210 | -5.82926 | 4494 ft | 165 kts | 283° |
| 2026-05-06 19:02 | 37.97544 | -5.84323 | 4495 ft | 167 kts | 283° |
| 2026-05-06 19:02 | 37.97883 | -5.85734 | 4490 ft | 167 kts | 283° |
| 2026-05-06 19:03 | 37.98212 | -5.87136 | 4502 ft | 167 kts | 284° |
| 2026-05-06 19:03 | 37.98545 | -5.88555 | 4493 ft | 169 kts | 283° |
| 2026-05-06 19:03 | 37.98879 | -5.89982 | 4494 ft | 169 kts | 283° |
| 2026-05-06 19:03 | 37.99219 | -5.91409 | 4493 ft | 169 kts | 283° |
| 2026-05-06 19:04 | 37.99553 | -5.92834 | 4496 ft | 168 kts | 283° |
| 2026-05-06 19:04 | 37.99889 | -5.94252 | 4501 ft | 168 kts | 284° |
| 2026-05-06 19:04 | 38.00226 | -5.95667 | 4497 ft | 167 kts | 283° |
| 2026-05-06 19:04 | 38.00559 | -5.97074 | 4499 ft | 166 kts | 283° |
| 2026-05-06 19:05 | 38.00887 | -5.98476 | 4497 ft | 166 kts | 283° |
| 2026-05-06 19:05 | 38.01211 | -5.99874 | 4498 ft | 165 kts | 283° |
| 2026-05-06 19:05 | 38.01536 | -6.01271 | 4497 ft | 165 kts | 283° |
| 2026-05-06 19:05 | 38.01861 | -6.02668 | 4495 ft | 165 kts | 284° |
| 2026-05-06 19:06 | 38.02183 | -6.04060 | 4500 ft | 164 kts | 283° |
| 2026-05-06 19:06 | 38.02494 | -6.05432 | 4496 ft | 164 kts | 283° |
| 2026-05-06 19:06 | 38.02804 | -6.06815 | 4490 ft | 162 kts | 283° |
| 2026-05-06 19:06 | 38.03105 | -6.08183 | 4488 ft | 161 kts | 283° |
| 2026-05-06 19:07 | 38.03409 | -6.09557 | 4488 ft | 163 kts | 283° |
| 2026-05-06 19:07 | 38.03707 | -6.10941 | 4490 ft | 162 kts | 284° |
| 2026-05-06 19:07 | 38.04001 | -6.12317 | 4491 ft | 161 kts | 283° |
| 2026-05-06 19:07 | 38.04288 | -6.13686 | 4497 ft | 160 kts | 283° |
| 2026-05-06 19:08 | 38.04574 | -6.15050 | 4489 ft | 160 kts | 283° |
| 2026-05-06 19:08 | 38.04858 | -6.16409 | 4488 ft | 159 kts | 283° |
| 2026-05-06 19:08 | 38.05135 | -6.17774 | 4496 ft | 159 kts | 283° |
| 2026-05-06 19:08 | 38.05402 | -6.19135 | 4497 ft | 158 kts | 283° |
| 2026-05-06 19:09 | 38.05669 | -6.20495 | 4499 ft | 159 kts | 283° |
| 2026-05-06 19:09 | 38.05933 | -6.21863 | 4501 ft | 160 kts | 283° |
| 2026-05-06 19:09 | 38.06255 | -6.23226 | 4497 ft | 162 kts | 292° |
| 2026-05-06 19:09 | 38.06747 | -6.24512 | 4498 ft | 162 kts | 295° |
| 2026-05-06 19:10 | 38.07221 | -6.25808 | 4504 ft | 163 kts | 295° |
| 2026-05-06 19:10 | 38.07702 | -6.27112 | 4502 ft | 163 kts | 296° |
| 2026-05-06 19:10 | 38.08179 | -6.28412 | 4507 ft | 163 kts | 295° |
| 2026-05-06 19:10 | 38.08609 | -6.29721 | 4505 ft | 162 kts | 290° |
| 2026-05-06 19:11 | 38.08984 | -6.31078 | 4499 ft | 164 kts | 287° |
| 2026-05-06 19:11 | 38.09289 | -6.32466 | 4500 ft | 163 kts | 287° |
| 2026-05-06 19:11 | 38.09569 | -6.33862 | 4499 ft | 163 kts | 282° |
| 2026-05-06 19:11 | 38.09924 | -6.35222 | 4489 ft | 162 kts | 298° |
| 2026-05-06 19:12 | 38.10342 | -6.36540 | 4497 ft | 161 kts | 287° |
| 2026-05-06 19:12 | 38.10660 | -6.37908 | 4492 ft | 161 kts | 286° |
| 2026-05-06 19:12 | 38.10878 | -6.39306 | 4491 ft | 161 kts | 284° |
| 2026-05-06 19:12 | 38.11164 | -6.40681 | 4492 ft | 162 kts | 286° |
| 2026-05-06 19:13 | 38.11463 | -6.42057 | 4492 ft | 161 kts | 287° |
| 2026-05-06 19:13 | 38.11757 | -6.43438 | 4493 ft | 162 kts | 287° |
| 2026-05-06 19:13 | 38.12051 | -6.44817 | 4493 ft | 162 kts | 286° |
| 2026-05-06 19:13 | 38.12347 | -6.46202 | 4493 ft | 162 kts | 286° |
| 2026-05-06 19:14 | 38.12635 | -6.47573 | 4490 ft | 163 kts | 286° |
| 2026-05-06 19:14 | 38.12926 | -6.48962 | 4492 ft | 163 kts | 286° |
| 2026-05-06 19:14 | 38.13214 | -6.50349 | 4487 ft | 162 kts | 286° |
| 2026-05-06 19:14 | 38.13503 | -6.51731 | 4493 ft | 162 kts | 286° |
| 2026-05-06 19:15 | 38.13795 | -6.53115 | 4494 ft | 162 kts | 285° |
| 2026-05-06 19:15 | 38.14088 | -6.54501 | 4490 ft | 162 kts | 286° |
| 2026-05-06 19:15 | 38.14378 | -6.55886 | 4492 ft | 162 kts | 286° |
| 2026-05-06 19:15 | 38.14665 | -6.57268 | 4494 ft | 162 kts | 285° |
| 2026-05-06 19:16 | 38.14955 | -6.58655 | 4490 ft | 162 kts | 286° |
| 2026-05-06 19:16 | 38.15245 | -6.60044 | 4492 ft | 163 kts | 286° |
| 2026-05-06 19:16 | 38.15539 | -6.61436 | 4492 ft | 163 kts | 287° |
| 2026-05-06 19:16 | 38.15868 | -6.62813 | 4488 ft | 163 kts | 288° |
| 2026-05-06 19:17 | 38.16114 | -6.64212 | 4473 ft | 162 kts | 303° |
| 2026-05-06 19:17 | 38.16734 | -6.65385 | 4493 ft | 161 kts | 298° |
| 2026-05-06 19:17 | 38.17153 | -6.66709 | 4500 ft | 163 kts | 285° |
| 2026-05-06 19:17 | 38.17412 | -6.68115 | 4500 ft | 163 kts | 285° |
| 2026-05-06 19:18 | 38.17675 | -6.69514 | 4505 ft | 163 kts | 285° |
| 2026-05-06 19:18 | 38.17937 | -6.70888 | 4509 ft | 162 kts | 285° |
| 2026-05-06 19:18 | 38.18203 | -6.72276 | 4508 ft | 162 kts | 285° |
| 2026-05-06 19:18 | 38.18470 | -6.73663 | 4504 ft | 161 kts | 285° |
| 2026-05-06 19:19 | 38.18737 | -6.75049 | 4506 ft | 161 kts | 285° |
| 2026-05-06 19:19 | 38.19001 | -6.76438 | 4505 ft | 161 kts | 284° |
| 2026-05-06 19:19 | 38.19266 | -6.77823 | 4505 ft | 161 kts | 285° |
| 2026-05-06 19:19 | 38.19528 | -6.79214 | 4507 ft | 163 kts | 285° |
| 2026-05-06 19:20 | 38.19790 | -6.80618 | 4509 ft | 163 kts | 284° |
| 2026-05-06 19:20 | 38.20055 | -6.82019 | 4505 ft | 163 kts | 285° |
| 2026-05-06 19:20 | 38.20320 | -6.83434 | 4506 ft | 164 kts | 285° |
| 2026-05-06 19:20 | 38.20669 | -6.84813 | 4506 ft | 164 kts | 293° |
| 2026-05-06 19:21 | 38.21107 | -6.86156 | 4506 ft | 165 kts | 294° |
| 2026-05-06 19:21 | 38.21550 | -6.87494 | 4504 ft | 164 kts | 294° |
| 2026-05-06 19:21 | 38.21990 | -6.88813 | 4502 ft | 163 kts | 294° |
| 2026-05-06 19:21 | 38.22431 | -6.90139 | 4502 ft | 162 kts | 294° |
| 2026-05-06 19:22 | 38.22866 | -6.91452 | 4498 ft | 160 kts | 294° |
| 2026-05-06 19:22 | 38.23302 | -6.92755 | 4498 ft | 160 kts | 294° |
| 2026-05-06 19:22 | 38.23739 | -6.94063 | 4495 ft | 160 kts | 294° |
| 2026-05-06 19:22 | 38.24171 | -6.95366 | 4495 ft | 160 kts | 294° |
| 2026-05-06 19:23 | 38.24608 | -6.96673 | 4495 ft | 160 kts | 294° |
| 2026-05-06 19:23 | 38.24896 | -6.97536 | 4494 ft | 160 kts | 294° |
| 2026-05-06 19:23 | 38.25477 | -6.99290 | 4492 ft | 161 kts | 294° |
| 2026-05-06 19:23 | 38.25762 | -7.00157 | 4497 ft | 161 kts | 294° |
| 2026-05-06 19:24 | 38.26331 | -7.01893 | 4495 ft | 160 kts | 294° |
| 2026-05-06 19:24 | 38.26764 | -7.03211 | 4501 ft | 163 kts | 294° |
| 2026-05-06 19:24 | 38.27058 | -7.04112 | 4501 ft | 164 kts | 294° |
| 2026-05-06 19:24 | 38.27508 | -7.05435 | 4500 ft | 164 kts | 295° |
| 2026-05-06 19:25 | 38.27958 | -7.06774 | 4500 ft | 163 kts | 295° |
| 2026-05-06 19:25 | 38.28394 | -7.08101 | 4502 ft | 162 kts | 294° |
| 2026-05-06 19:25 | 38.28830 | -7.09415 | 4505 ft | 162 kts | 295° |
| 2026-05-06 19:25 | 38.29268 | -7.10720 | 4501 ft | 163 kts | 294° |
| 2026-05-06 19:26 | 38.29711 | -7.12058 | 4506 ft | 164 kts | 294° |
| 2026-05-06 19:26 | 38.30152 | -7.13398 | 4501 ft | 164 kts | 294° |
| 2026-05-06 19:26 | 38.30589 | -7.14735 | 4504 ft | 163 kts | 294° |
| 2026-05-06 19:26 | 38.31027 | -7.16069 | 4501 ft | 163 kts | 294° |
| 2026-05-06 19:27 | 38.31459 | -7.17403 | 4502 ft | 163 kts | 294° |
| 2026-05-06 19:27 | 38.31892 | -7.18737 | 4501 ft | 163 kts | 294° |
| 2026-05-06 19:27 | 38.32331 | -7.20068 | 4501 ft | 162 kts | 295° |
| 2026-05-06 19:27 | 38.32763 | -7.21392 | 4499 ft | 161 kts | 294° |
| 2026-05-06 19:28 | 38.33188 | -7.22719 | 4499 ft | 162 kts | 293° |
| 2026-05-06 19:28 | 38.33613 | -7.24055 | 4497 ft | 163 kts | 293° |
| 2026-05-06 19:28 | 38.34037 | -7.25380 | 4502 ft | 161 kts | 293° |
| 2026-05-06 19:28 | 38.34488 | -7.26687 | 4504 ft | 161 kts | 296° |
| 2026-05-06 19:29 | 38.34955 | -7.27994 | 4501 ft | 163 kts | 295° |
| 2026-05-06 19:29 | 38.35422 | -7.29304 | 4501 ft | 162 kts | 295° |
| 2026-05-06 19:29 | 38.35872 | -7.30612 | 4504 ft | 161 kts | 294° |
| 2026-05-06 19:29 | 38.36301 | -7.31925 | 4497 ft | 160 kts | 293° |
| 2026-05-06 19:30 | 38.36721 | -7.33249 | 4505 ft | 162 kts | 294° |
| 2026-05-06 19:30 | 38.37136 | -7.34553 | 4504 ft | 160 kts | 294° |
| 2026-05-06 19:30 | 38.37564 | -7.35895 | 4513 ft | 163 kts | 293° |
| 2026-05-06 19:30 | 38.37989 | -7.37222 | 4508 ft | 163 kts | 294° |
| 2026-05-06 19:31 | 38.38410 | -7.38554 | 4507 ft | 160 kts | 293° |
| 2026-05-06 19:31 | 38.38826 | -7.39866 | 4513 ft | 159 kts | 294° |
| 2026-05-06 19:31 | 38.39661 | -7.42510 | 4505 ft | 162 kts | 293° |
| 2026-05-06 19:32 | 38.40083 | -7.43835 | 4509 ft | 161 kts | 294° |
| 2026-05-06 19:32 | 38.40505 | -7.45166 | 4504 ft | 161 kts | 294° |
| 2026-05-06 19:32 | 38.40925 | -7.46490 | 4513 ft | 161 kts | 294° |
| 2026-05-06 19:32 | 38.41342 | -7.47820 | 4512 ft | 162 kts | 294° |
| 2026-05-06 19:33 | 38.41759 | -7.49151 | 4510 ft | 161 kts | 294° |
| 2026-05-06 19:33 | 38.42174 | -7.50477 | 4509 ft | 161 kts | 294° |
| 2026-05-06 19:33 | 38.42601 | -7.51802 | 4514 ft | 163 kts | 294° |
| 2026-05-06 19:33 | 38.43051 | -7.53115 | 4512 ft | 164 kts | 294° |
| 2026-05-06 19:34 | 38.43482 | -7.54482 | 4339 ft | 167 kts | 295° |
| 2026-05-06 19:34 | 38.43910 | -7.55851 | 4087 ft | 164 kts | 295° |
| 2026-05-06 19:34 | 38.44324 | -7.57184 | 3835 ft | 159 kts | 294° |
| 2026-05-06 19:34 | 38.44723 | -7.58491 | 3583 ft | 157 kts | 294° |
| 2026-05-06 19:35 | 38.45114 | -7.59779 | 3335 ft | 155 kts | 294° |
| 2026-05-06 19:35 | 38.45509 | -7.61060 | 3095 ft | 156 kts | 294° |
| 2026-05-06 19:35 | 38.45906 | -7.62343 | 2840 ft | 154 kts | 294° |
| 2026-05-06 19:35 | 38.46297 | -7.63615 | 2589 ft | 153 kts | 294° |
| 2026-05-06 19:36 | 38.46669 | -7.64873 | 2451 ft | 146 kts | 294° |
| 2026-05-06 19:36 | 38.47003 | -7.66032 | 2443 ft | 136 kts | 294° |
| 2026-05-06 19:36 | 38.47331 | -7.67156 | 2441 ft | 137 kts | 293° |
| 2026-05-06 19:36 | 38.47667 | -7.68308 | 2454 ft | 140 kts | 293° |
| 2026-05-06 19:37 | 38.48018 | -7.69484 | 2453 ft | 142 kts | 294° |
| 2026-05-06 19:37 | 38.48375 | -7.70663 | 2455 ft | 142 kts | 294° |
| 2026-05-06 19:37 | 38.48728 | -7.71844 | 2460 ft | 142 kts | 294° |
| 2026-05-06 19:37 | 38.49084 | -7.73012 | 2462 ft | 141 kts | 294° |
| 2026-05-06 19:38 | 38.49421 | -7.74187 | 2473 ft | 141 kts | 294° |
| 2026-05-06 19:38 | 38.49745 | -7.75363 | 2466 ft | 141 kts | 293° |
| 2026-05-06 19:38 | 38.50079 | -7.76543 | 2469 ft | 141 kts | 294° |
| 2026-05-06 19:38 | 38.50417 | -7.77720 | 2456 ft | 140 kts | 295° |
| 2026-05-06 19:39 | 38.50794 | -7.78853 | 2455 ft | 138 kts | 298° |
| 2026-05-06 19:39 | 38.51177 | -7.79973 | 2454 ft | 137 kts | 297° |
| 2026-05-06 19:39 | 38.51562 | -7.81074 | 2457 ft | 135 kts | 297° |
| 2026-05-06 19:39 | 38.51954 | -7.82168 | 2463 ft | 137 kts | 298° |
| 2026-05-06 19:40 | 38.52210 | -7.83354 | 2461 ft | 145 kts | 275° |
| 2026-05-06 19:40 | 38.52128 | -7.84663 | 2472 ft | 149 kts | 271° |
| 2026-05-06 19:40 | 38.52057 | -7.85994 | 2476 ft | 150 kts | 272° |
| 2026-05-06 19:40 | 38.51975 | -7.87330 | 2475 ft | 151 kts | 271° |
| 2026-05-06 19:41 | 38.51890 | -7.88653 | 2481 ft | 149 kts | 272° |
| 2026-05-06 19:41 | 38.51811 | -7.89963 | 2477 ft | 147 kts | 271° |
| 2026-05-06 19:41 | 38.51740 | -7.91255 | 2479 ft | 149 kts | 272° |
| 2026-05-06 19:41 | 38.51660 | -7.92575 | 2473 ft | 149 kts | 272° |
| 2026-05-06 19:42 | 38.51585 | -7.93906 | 2478 ft | 151 kts | 272° |
| 2026-05-06 19:42 | 38.51505 | -7.95239 | 2483 ft | 150 kts | 271° |
| 2026-05-06 19:42 | 38.51422 | -7.96576 | 2483 ft | 151 kts | 271° |
| 2026-05-06 19:42 | 38.51343 | -7.97915 | 2487 ft | 151 kts | 272° |
| 2026-05-06 19:43 | 38.51277 | -7.99254 | 2478 ft | 149 kts | 272° |
| 2026-05-06 19:43 | 38.51220 | -8.00571 | 2476 ft | 148 kts | 272° |
| 2026-05-06 19:43 | 38.51160 | -8.01892 | 2483 ft | 151 kts | 271° |
| 2026-05-06 19:43 | 38.51093 | -8.03243 | 2477 ft | 153 kts | 272° |
| 2026-05-06 19:44 | 38.51007 | -8.04587 | 2486 ft | 155 kts | 271° |
| 2026-05-06 19:44 | 38.50934 | -8.05956 | 2485 ft | 155 kts | 272° |
| 2026-05-06 19:44 | 38.50860 | -8.07317 | 2481 ft | 151 kts | 272° |
| 2026-05-06 19:44 | 38.50828 | -8.08648 | 2481 ft | 150 kts | 272° |
| 2026-05-06 19:45 | 38.50863 | -8.09967 | 2479 ft | 148 kts | 281° |
| 2026-05-06 19:45 | 38.50802 | -8.11296 | 2478 ft | 150 kts | 271° |
| 2026-05-06 19:45 | 38.50712 | -8.12624 | 2476 ft | 150 kts | 272° |
| 2026-05-06 19:45 | 38.50646 | -8.13949 | 2478 ft | 150 kts | 272° |
| 2026-05-06 19:46 | 38.50597 | -8.15277 | 2479 ft | 149 kts | 272° |
| 2026-05-06 19:46 | 38.50560 | -8.16600 | 2484 ft | 150 kts | 273° |
| 2026-05-06 19:46 | 38.50514 | -8.17944 | 2479 ft | 152 kts | 273° |
| 2026-05-06 19:46 | 38.50463 | -8.19288 | 2484 ft | 152 kts | 273° |
| 2026-05-06 19:47 | 38.50407 | -8.20633 | 2486 ft | 151 kts | 272° |
| 2026-05-06 19:47 | 38.50377 | -8.21966 | 2487 ft | 150 kts | 274° |
| 2026-05-06 19:47 | 38.50346 | -8.23297 | 2484 ft | 152 kts | 274° |
| 2026-05-06 19:47 | 38.50318 | -8.24641 | 2490 ft | 151 kts | 275° |
| 2026-05-06 19:48 | 38.50301 | -8.25980 | 2493 ft | 151 kts | 275° |
| 2026-05-06 19:48 | 38.50285 | -8.27337 | 2480 ft | 150 kts | 275° |
| 2026-05-06 19:48 | 38.50278 | -8.28644 | 2482 ft | 147 kts | 275° |
| 2026-05-06 19:48 | 38.50259 | -8.29938 | 2485 ft | 145 kts | 275° |
| 2026-05-06 19:49 | 38.50225 | -8.31223 | 2490 ft | 145 kts | 274° |
| 2026-05-06 19:49 | 38.50190 | -8.32520 | 2484 ft | 147 kts | 274° |
| 2026-05-06 19:49 | 38.50156 | -8.33824 | 2492 ft | 147 kts | 274° |
| 2026-05-06 19:49 | 38.50117 | -8.35125 | 2495 ft | 148 kts | 274° |
| 2026-05-06 19:50 | 38.50062 | -8.36455 | 2493 ft | 150 kts | 274° |
| 2026-05-06 19:50 | 38.50014 | -8.37806 | 2403 ft | 157 kts | 274° |
| 2026-05-06 19:50 | 38.49968 | -8.39215 | 2282 ft | 160 kts | 274° |
| 2026-05-06 19:50 | 38.49924 | -8.40632 | 2155 ft | 159 kts | 274° |
| 2026-05-06 19:51 | 38.49890 | -8.42047 | 2034 ft | 159 kts | 274° |
| 2026-05-06 19:51 | 38.49851 | -8.43439 | 2004 ft | 155 kts | 274° |
| 2026-05-06 19:51 | 38.49806 | -8.44799 | 1992 ft | 151 kts | 273° |
| 2026-05-06 19:51 | 38.49764 | -8.46115 | 1992 ft | 147 kts | 274° |
| 2026-05-06 19:52 | 38.49728 | -8.47416 | 1989 ft | 146 kts | 274° |
| 2026-05-06 19:52 | 38.49694 | -8.48716 | 2000 ft | 147 kts | 274° |
| 2026-05-06 19:52 | 38.49652 | -8.50034 | 2006 ft | 150 kts | 274° |
| 2026-05-06 19:52 | 38.49614 | -8.51352 | 2009 ft | 150 kts | 274° |
| 2026-05-06 19:53 | 38.49627 | -8.52680 | 2010 ft | 145 kts | 277° |
| 2026-05-06 19:53 | 38.49649 | -8.53922 | 1998 ft | 141 kts | 276° |
| 2026-05-06 19:53 | 38.49658 | -8.55178 | 2000 ft | 143 kts | 276° |
| 2026-05-06 19:53 | 38.49665 | -8.56456 | 1996 ft | 145 kts | 276° |
| 2026-05-06 19:54 | 38.49667 | -8.57742 | 2008 ft | 146 kts | 276° |
| 2026-05-06 19:54 | 38.49673 | -8.59055 | 2010 ft | 149 kts | 277° |
| 2026-05-06 19:54 | 38.49678 | -8.60377 | 2017 ft | 149 kts | 276° |
| 2026-05-06 19:54 | 38.49677 | -8.61710 | 2010 ft | 149 kts | 276° |
| 2026-05-06 19:55 | 38.49681 | -8.63017 | 2004 ft | 146 kts | 277° |
| 2026-05-06 19:55 | 38.49692 | -8.64319 | 2010 ft | 148 kts | 277° |
| 2026-05-06 19:55 | 38.49694 | -8.65635 | 2009 ft | 148 kts | 276° |
| 2026-05-06 19:55 | 38.49703 | -8.66963 | 2014 ft | 152 kts | 276° |
| 2026-05-06 19:56 | 38.49713 | -8.68324 | 2009 ft | 154 kts | 276° |
| 2026-05-06 19:56 | 38.49723 | -8.69690 | 2014 ft | 153 kts | 277° |
| 2026-05-06 19:56 | 38.49754 | -8.71031 | 2016 ft | 150 kts | 278° |
| 2026-05-06 19:56 | 38.49809 | -8.72369 | 2024 ft | 152 kts | 278° |
| 2026-05-06 19:57 | 38.49859 | -8.73729 | 2014 ft | 153 kts | 278° |
| 2026-05-06 19:57 | 38.49918 | -8.75091 | 2012 ft | 154 kts | 279° |
| 2026-05-06 19:57 | 38.49974 | -8.76466 | 2014 ft | 156 kts | 278° |
| 2026-05-06 19:57 | 38.50038 | -8.77844 | 2019 ft | 160 kts | 278° |
| 2026-05-06 19:58 | 38.50092 | -8.79302 | 2024 ft | 164 kts | 279° |
| 2026-05-06 19:58 | 38.50147 | -8.80742 | 2017 ft | 165 kts | 278° |
| 2026-05-06 19:58 | 38.50201 | -8.82194 | 2019 ft | 163 kts | 278° |
| 2026-05-06 19:58 | 38.50278 | -8.83640 | 2015 ft | 164 kts | 278° |
| 2026-05-06 19:59 | 38.50359 | -8.85088 | 2014 ft | 162 kts | 278° |
| 2026-05-06 19:59 | 38.50431 | -8.86512 | 2011 ft | 160 kts | 279° |
| 2026-05-06 19:59 | 38.50478 | -8.87926 | 2009 ft | 158 kts | 278° |
| 2026-05-06 19:59 | 38.50542 | -8.89319 | 2013 ft | 157 kts | 279° |
| 2026-05-06 20:00 | 38.50607 | -8.90714 | 2007 ft | 157 kts | 279° |
| 2026-05-06 20:00 | 38.50668 | -8.92099 | 2008 ft | 156 kts | 279° |
| 2026-05-06 20:00 | 38.50730 | -8.93490 | 2005 ft | 158 kts | 281° |
| 2026-05-06 20:00 | 38.50832 | -8.94875 | 2014 ft | 155 kts | 284° |
| 2026-05-06 20:01 | 38.51062 | -8.96210 | 2019 ft | 157 kts | 282° |
| 2026-05-06 20:01 | 38.51192 | -8.97592 | 2006 ft | 152 kts | 297° |
| 2026-05-06 20:01 | 38.51502 | -8.98870 | 2012 ft | 152 kts | 286° |
| 2026-05-06 20:01 | 38.51518 | -9.00220 | 2015 ft | 159 kts | 264° |
| 2026-05-06 20:02 | 38.51274 | -9.01611 | 2023 ft | 165 kts | 265° |
| 2026-05-06 20:02 | 38.51040 | -9.03076 | 2024 ft | 168 kts | 265° |
| 2026-05-06 20:02 | 38.50803 | -9.04528 | 2029 ft | 167 kts | 265° |
| 2026-05-06 20:02 | 38.50568 | -9.05979 | 2027 ft | 172 kts | 264° |
| 2026-05-06 20:03 | 38.50339 | -9.07493 | 2027 ft | 174 kts | 265° |
| 2026-05-06 20:03 | 38.50120 | -9.09019 | 2020 ft | 175 kts | 266° |
| 2026-05-06 20:03 | 38.49866 | -9.10548 | 2021 ft | 177 kts | 263° |
| 2026-05-06 20:03 | 38.49617 | -9.12088 | 2024 ft | 177 kts | 265° |
| 2026-05-06 20:04 | 38.49404 | -9.13639 | 2028 ft | 178 kts | 265° |
| 2026-05-06 20:04 | 38.49185 | -9.15188 | 2032 ft | 176 kts | 265° |
| 2026-05-06 20:04 | 38.48948 | -9.16711 | 2025 ft | 174 kts | 264° |
| 2026-05-06 20:04 | 38.48697 | -9.18213 | 2037 ft | 173 kts | 263° |
| 2026-05-06 20:05 | 38.48419 | -9.19727 | 2019 ft | 177 kts | 258° |
| 2026-05-06 20:05 | 38.47739 | -9.21076 | 2024 ft | 183 kts | 238° |
| 2026-05-06 20:05 | 38.46950 | -9.22336 | 1888 ft | 181 kts | 254° |
| 2026-05-06 20:05 | 38.46978 | -9.23802 | 1909 ft | 159 kts | 301° |
| 2026-05-06 20:06 | 38.47807 | -9.24588 | 1890 ft | 154 kts | 348° |
| 2026-05-06 20:06 | 38.48876 | -9.24604 | 1865 ft | 155 kts | 359° |
| 2026-05-06 20:06 | 38.49954 | -9.24636 | 1838 ft | 153 kts | 353° |
| 2026-05-06 20:06 | 38.50989 | -9.24823 | 1954 ft | 147 kts | 349° |
| 2026-05-06 20:07 | 38.52003 | -9.24958 | 2024 ft | 149 kts | 356° |
| 2026-05-06 20:07 | 38.53046 | -9.25041 | 2068 ft | 149 kts | 350° |
| 2026-05-06 20:07 | 38.54048 | -9.25288 | 2184 ft | 146 kts | 347° |
| 2026-05-06 20:07 | 38.55056 | -9.25488 | 2269 ft | 147 kts | 348° |
| 2026-05-06 20:08 | 38.56054 | -9.25746 | 2331 ft | 146 kts | 346° |
| 2026-05-06 20:08 | 38.57060 | -9.25973 | 2389 ft | 146 kts | 348° |
| 2026-05-06 20:08 | 38.58047 | -9.26273 | 2450 ft | 147 kts | 341° |
| 2026-05-06 20:08 | 38.59001 | -9.26774 | 2480 ft | 149 kts | 334° |
| 2026-05-06 20:09 | 38.59983 | -9.27370 | 2247 ft | 163 kts | 335° |
| 2026-05-06 20:09 | 38.60679 | -9.27737 | 2201 ft | 164 kts | 339° |
| 2026-05-06 20:09 | 38.61765 | -9.28225 | 2077 ft | 166 kts | 342° |
| 2026-05-06 20:09 | 38.62863 | -9.28641 | 1786 ft | 161 kts | 345° |
| 2026-05-06 20:10 | 38.63909 | -9.29055 | 1478 ft | 155 kts | 340° |
| 2026-05-06 20:10 | 38.64835 | -9.29680 | 1297 ft | 145 kts | 332° |
| 2026-05-06 20:10 | 38.65653 | -9.30371 | 1180 ft | 140 kts | 324° |
| 2026-05-06 20:10 | 38.66377 | -9.31155 | 1142 ft | 132 kts | 321° |
| 2026-05-06 20:11 | 38.66994 | -9.31963 | 1061 ft | 117 kts | 322° |
| 2026-05-06 20:11 | 38.67682 | -9.32340 | 990 ft | 101 kts | 346° |
| 2026-05-06 20:11 | 38.68289 | -9.32620 | 1079 ft | 79 kts | 330° |
| 2026-05-06 20:11 | 38.68671 | -9.33062 | 1137 ft | 78 kts | 313° |
| 2026-05-06 20:12 | 38.68981 | -9.33635 | 1168 ft | 74 kts | 312° |
| 2026-05-06 20:12 | 38.69331 | -9.34149 | 997 ft | 78 kts | 316° |
| 2026-05-06 20:12 | 38.69772 | -9.34519 | 860 ft | 73 kts | 343° |
| 2026-05-06 20:12 | 38.70251 | -9.34702 | 780 ft | 74 kts | 340° |
| 2026-05-06 20:13 | 38.70773 | -9.34899 | 712 ft | 78 kts | 344° |
| 2026-05-06 20:13 | 38.71299 | -9.35077 | 537 ft | 78 kts | 342° |
| 2026-05-06 20:13 | 38.71796 | -9.35257 | 344 ft | 71 kts | 345° |
| 2026-05-06 20:13 | 38.72221 | -9.35413 | 322 ft | 56 kts | 343° |
| 2026-05-06 20:14 | 38.72481 | -9.35509 | 320 ft | 26 kts | 345° |
| 2026-05-06 20:14 | 38.72532 | -9.35606 | 320 ft | 13 kts | 254° |
| 2026-05-06 20:14 | 38.72509 | -9.35628 | 320 ft | 6 kts | 187° |
| 2026-05-06 20:14 | 38.72427 | -9.35598 | 320 ft | 13 kts | 162° |
| 2026-05-06 20:15 | 38.72330 | -9.35596 | 320 ft | 16 kts | 244° |
| 2026-05-06 20:15 | 38.72305 | -9.35721 | 321 ft | 17 kts | 249° |
| 2026-05-06 20:15 | 38.72196 | -9.35741 | 321 ft | 11 kts | 180° |
| 2026-05-06 20:15 | 38.72190 | -9.35773 | 321 ft | 0 kts | 11° |
| 2026-05-06 20:16 | 38.72195 | -9.35764 | 321 ft | 0 kts | 99° |
| 2026-05-06 20:16 | 38.72196 | -9.35772 | 321 ft | 2 kts | 95° |
| 2026-05-06 20:16 | 38.72196 | -9.35774 | 321 ft | 0 kts | 91° |